Time;durP1;ratioP1;P1;durP2;ratioP2;P2;SDS_P1;SDS_P2;PMS_P1;PMS_P2;Temp;Humidity;BMP_temperature;BMP_pressure;BME280_temperature;BME280_humidity;BME280_pressure;Samples;Min_cycle;Max_cycle;Signal;HPM_P1;HPM_P2
2021/05/26 00:01:15;;;;;;;7.78;4.28;;;11.40;98.60;;;;;;5049254;28;20029;-72
2021/05/26 00:03:41;;;;;;;7.00;4.45;;;11.40;98.60;;;;;;5049755;28;20021;-72
2021/05/26 00:06:06;;;;;;;5.97;4.05;;;11.30;98.70;;;;;;5054349;28;20029;-73
2021/05/26 00:08:37;;;;;;;8.93;3.88;;;11.40;98.60;;;;;;5046292;28;20033;-72
2021/05/26 00:11:06;;;;;;;6.55;3.83;;;11.30;98.60;;;;;;5049309;28;20044;-72
2021/05/26 00:13:32;;;;;;;7.00;4.10;;;11.30;98.90;;;;;;5046630;28;20099;-72
2021/05/26 00:15:58;;;;;;;6.82;3.47;;;11.20;98.70;;;;;;5049673;28;20476;-72
2021/05/26 00:18:24;;;;;;;4.25;3.28;;;11.20;98.80;;;;;;5051649;28;20033;-72
2021/05/26 00:20:52;;;;;;;8.25;4.22;;;11.10;98.80;;;;;;5053917;28;20060;-72
2021/05/26 00:23:18;;;;;;;7.15;3.85;;;11.00;99.00;;;;;;5051146;28;20025;-72
2021/05/26 00:25:44;;;;;;;7.70;4.28;;;11.00;98.90;;;;;;5050116;28;20074;-72
2021/05/26 00:28:10;;;;;;;5.68;3.90;;;11.00;99.00;;;;;;5052144;28;20033;-72
2021/05/26 00:30:43;;;;;;;6.30;3.70;;;11.00;98.80;;;;;;5053275;28;20397;-72
2021/05/26 00:33:10;;;;;;;7.53;3.75;;;10.90;98.70;;;;;;5055253;28;20114;-72
2021/05/26 00:35:35;;;;;;;4.38;2.83;;;10.90;98.90;;;;;;5054911;28;20582;-72
2021/05/26 00:38:05;;;;;;;7.28;3.17;;;11.00;98.80;;;;;;5055298;28;20132;-72
2021/05/26 00:40:31;;;;;;;6.80;3.13;;;10.90;98.70;;;;;;5050745;28;20380;-72
2021/05/26 00:42:57;;;;;;;6.45;3.55;;;10.90;98.70;;;;;;5051210;28;20421;-72
2021/05/26 00:45:23;;;;;;;5.07;3.33;;;10.80;98.80;;;;;;5054818;28;20036;-72
2021/05/26 00:47:50;;;;;;;7.10;3.10;;;10.80;98.60;;;;;;5055331;28;20039;-72
2021/05/26 00:50:20;;;;;;;7.53;2.83;;;10.80;98.40;;;;;;5053282;28;20051;-72
2021/05/26 00:52:46;;;;;;;7.68;3.20;;;10.80;98.30;;;;;;5056734;28;20021;-72
2021/05/26 00:55:15;;;;;;;8.98;3.50;;;10.80;98.30;;;;;;5052012;28;20502;-73
2021/05/26 00:57:41;;;;;;;5.93;3.15;;;10.70;98.40;;;;;;5051896;28;20057;-72
2021/05/26 01:00:09;;;;;;;6.10;3.50;;;10.70;98.60;;;;;;5049061;28;20028;-72
2021/05/26 01:02:34;;;;;;;6.00;2.75;;;10.70;98.40;;;;;;5052186;28;20029;-72
2021/05/26 01:05:00;;;;;;;11.82;3.20;;;10.60;98.50;;;;;;5053237;28;20031;-72
2021/05/26 01:07:26;;;;;;;5.03;2.50;;;10.60;98.30;;;;;;5055698;28;20044;-72
2021/05/26 01:09:51;;;;;;;4.78;3.17;;;10.50;98.20;;;;;;5044838;28;20474;-72
2021/05/26 01:12:17;;;;;;;5.55;3.00;;;10.40;98.40;;;;;;5053669;28;20075;-72
2021/05/26 01:14:43;;;;;;;9.00;3.58;;;10.30;98.30;;;;;;5055330;28;20510;-72
2021/05/26 01:17:08;;;;;;;5.93;3.00;;;10.20;98.30;;;;;;5056655;28;20060;-72
2021/05/26 01:19:34;;;;;;;4.90;2.50;;;10.20;98.30;;;;;;5054320;28;20025;-72
2021/05/26 01:22:00;;;;;;;3.80;2.42;;;10.10;98.40;;;;;;5050150;28;20052;-71
2021/05/26 01:24:25;;;;;;;5.03;2.42;;;10.00;98.50;;;;;;5069989;28;20040;-72
2021/05/26 01:26:52;;;;;;;4.93;2.55;;;10.00;98.40;;;;;;5053042;28;20052;-72
2021/05/26 01:29:18;;;;;;;7.13;2.92;;;10.00;98.30;;;;;;5051781;28;20445;-72
2021/05/26 01:31:44;;;;;;;5.97;2.50;;;10.00;98.30;;;;;;5052044;28;20088;-72
2021/05/26 01:34:09;;;;;;;5.50;2.65;;;9.90;98.30;;;;;;5053202;28;20036;-72
2021/05/26 01:36:35;;;;;;;5.00;2.35;;;9.80;98.20;;;;;;5055082;28;20040;-72
2021/05/26 01:39:03;;;;;;;4.53;2.40;;;9.80;98.20;;;;;;5047970;28;20036;-71
2021/05/26 01:41:29;;;;;;;3.00;2.00;;;9.70;98.20;;;;;;5050805;28;20025;-72
2021/05/26 01:43:55;;;;;;;7.03;2.30;;;9.70;98.40;;;;;;5054407;28;20031;-72
2021/05/26 01:46:22;;;;;;;4.80;2.40;;;9.70;98.60;;;;;;5054222;28;20028;-72
2021/05/26 01:48:49;;;;;;;8.95;2.25;;;9.70;98.70;;;;;;5049535;28;20033;-72
2021/05/26 01:51:15;;;;;;;5.13;2.30;;;9.70;98.50;;;;;;5051782;28;20021;-72
2021/05/26 01:53:41;;;;;;;3.60;2.60;;;9.60;98.50;;;;;;5050116;28;20021;-72
2021/05/26 01:56:18;;;;;;;7.00;2.58;;;9.50;98.30;;;;;;5050732;28;20032;-72
2021/05/26 01:58:47;;;;;;;4.70;2.55;;;9.50;98.40;;;;;;5049383;28;20483;-72
2021/05/26 02:01:15;;;;;;;5.03;2.20;;;9.40;98.40;;;;;;5044042;28;20025;-72
2021/05/26 02:03:41;;;;;;;5.13;2.58;;;9.40;98.60;;;;;;5051349;28;20049;-72
2021/05/26 02:06:07;;;;;;;5.40;2.05;;;9.40;98.50;;;;;;5049989;28;20025;-72
2021/05/26 02:08:33;;;;;;;9.52;2.58;;;9.30;98.50;;;;;;5050861;28;20071;-72
2021/05/26 02:13:44;;;;;;;4.03;2.40;;;9.30;98.60;;;;;;5048635;28;20517;-72
2021/05/26 02:16:09;;;;;;;4.18;2.40;;;9.20;98.60;;;;;;5048453;28;20018;-72
2021/05/26 02:18:35;;;;;;;5.90;2.33;;;9.20;98.50;;;;;;5050263;28;20373;-72
2021/05/26 02:21:00;;;;;;;5.28;2.15;;;9.20;98.60;;;;;;5052128;28;20110;-72
2021/05/26 02:23:26;;;;;;;4.82;1.90;;;9.10;98.50;;;;;;5049719;28;20438;-72
2021/05/26 02:25:52;;;;;;;6.60;2.20;;;9.10;98.60;;;;;;5049962;28;20028;-72
2021/05/26 02:28:17;;;;;;;5.65;2.47;;;9.10;98.60;;;;;;5053787;28;20028;-72
2021/05/26 02:30:43;;;;;;;8.25;2.45;;;9.10;98.40;;;;;;5051834;28;20086;-71
2021/05/26 02:33:09;;;;;;;3.28;2.28;;;9.10;98.50;;;;;;5056195;28;20067;-72
2021/05/26 02:35:34;;;;;;;4.65;2.30;;;9.10;98.20;;;;;;5059170;28;20052;-72
2021/05/26 02:38:00;;;;;;;3.33;2.05;;;9.10;98.40;;;;;;5062109;28;20492;-72
2021/05/26 02:40:26;;;;;;;4.18;2.50;;;9.00;98.20;;;;;;5049778;28;20020;-72
2021/05/26 02:42:51;;;;;;;5.45;2.25;;;8.90;98.30;;;;;;5049416;28;20049;-69
2021/05/26 02:45:17;;;;;;;5.22;2.17;;;8.90;98.50;;;;;;5050302;28;20107;-72
2021/05/26 02:47:43;;;;;;;8.98;2.15;;;8.90;98.70;;;;;;5035490;28;20048;-71
2021/05/26 02:50:16;;;;;;;6.07;2.20;;;8.90;98.70;;;;;;5050748;28;20036;-72
2021/05/26 02:52:43;;;;;;;6.78;2.42;;;8.90;98.90;;;;;;5051126;28;20066;-72
2021/05/26 02:55:09;;;;;;;4.53;2.35;;;8.90;98.60;;;;;;5048212;28;20047;-72
2021/05/26 02:57:35;;;;;;;2.95;1.88;;;8.80;98.40;;;;;;5043893;28;20044;-72
2021/05/26 03:00:01;;;;;;;4.95;2.08;;;8.90;98.50;;;;;;5048718;28;20055;-73
2021/05/26 03:02:26;;;;;;;5.97;2.28;;;8.80;98.60;;;;;;5050488;28;20052;-72
2021/05/26 03:04:52;;;;;;;4.70;2.05;;;8.80;98.70;;;;;;5035440;28;20111;-72
2021/05/26 03:07:18;;;;;;;6.20;2.05;;;8.90;98.70;;;;;;5048063;28;20434;-72
2021/05/26 03:09:43;;;;;;;6.05;2.40;;;9.00;98.70;;;;;;5046611;28;20112;-72
2021/05/26 03:12:09;;;;;;;5.43;2.35;;;9.00;98.50;;;;;;5046809;28;20020;-73
2021/05/26 03:14:35;;;;;;;7.47;2.10;;;9.00;98.40;;;;;;5044478;28;20199;-72
2021/05/26 03:17:01;;;;;;;3.47;2.17;;;9.00;98.40;;;;;;5046215;28;20064;-72
2021/05/26 03:19:26;;;;;;;4.97;2.50;;;9.30;98.40;;;;;;5042597;28;20037;-72
2021/05/26 03:21:52;;;;;;;5.03;1.75;;;9.50;97.80;;;;;;5047049;28;20500;-72
2021/05/26 03:24:18;;;;;;;5.07;2.17;;;9.60;97.50;;;;;;5051212;28;20055;-72
2021/05/26 03:26:45;;;;;;;3.55;1.70;;;9.70;97.30;;;;;;5039879;28;20021;-72
2021/05/26 03:29:12;;;;;;;4.63;1.73;;;9.70;97.30;;;;;;5050919;28;20085;-72
2021/05/26 03:31:38;;;;;;;3.83;2.03;;;9.70;97.20;;;;;;5046421;28;20071;-72
2021/05/26 03:34:04;;;;;;;5.50;1.67;;;9.70;97.30;;;;;;5049527;28;20029;-72
2021/05/26 03:36:30;;;;;;;4.07;2.03;;;9.90;97.50;;;;;;5060801;28;20112;-72
2021/05/26 03:38:56;;;;;;;3.92;1.80;;;10.10;96.60;;;;;;5051231;28;20116;-72
2021/05/26 03:41:22;;;;;;;3.40;1.50;;;10.10;96.50;;;;;;5052030;28;20040;-72
2021/05/26 03:43:47;;;;;;;5.35;2.00;;;10.10;96.50;;;;;;5051829;28;20028;-72
2021/05/26 03:46:13;;;;;;;4.30;2.05;;;10.10;96.40;;;;;;5048597;28;20105;-72
2021/05/26 03:48:40;;;;;;;6.82;2.08;;;10.10;96.60;;;;;;5046336;28;20048;-72
2021/05/26 03:51:06;;;;;;;5.57;1.90;;;10.10;96.90;;;;;;5049236;28;20029;-72
2021/05/26 03:53:31;;;;;;;2.55;1.48;;;10.70;96.70;;;;;;5047091;28;20122;-72
2021/05/26 03:55:57;;;;;;;3.88;2.13;;;11.60;94.80;;;;;;5042225;28;20061;-72
2021/05/26 03:58:23;;;;;;;5.20;1.63;;;12.60;93.40;;;;;;5047357;28;20029;-72
2021/05/26 04:00:49;;;;;;;2.53;1.45;;;13.60;90.90;;;;;;5042256;28;20056;-73
2021/05/26 04:03:15;;;;;;;3.78;1.58;;;14.40;88.20;;;;;;5050405;28;20035;-72
2021/05/26 04:05:41;;;;;;;3.03;1.23;;;15.00;86.00;;;;;;5039897;28;20053;-72
2021/05/26 04:08:06;;;;;;;2.97;1.33;;;15.40;82.50;;;;;;5042185;28;20036;-72
2021/05/26 04:10:32;;;;;;;4.25;1.40;;;15.80;81.80;;;;;;5047940;28;20119;-72
2021/05/26 04:12:58;;;;;;;4.93;1.35;;;16.20;79.90;;;;;;5046394;28;20025;-72
2021/05/26 04:15:23;;;;;;;3.83;1.55;;;16.60;77.20;;;;;;5047061;28;20033;-73
2021/05/26 04:17:49;;;;;;;3.17;1.52;;;16.90;76.00;;;;;;5042325;28;20495;-72
2021/05/26 04:20:15;;;;;;;3.72;1.30;;;17.00;74.80;;;;;;5045518;28;20407;-72
2021/05/26 04:22:41;;;;;;;2.97;1.05;;;17.20;74.50;;;;;;5045966;28;20652;-72
2021/05/26 04:25:07;;;;;;;2.83;1.40;;;17.50;73.60;;;;;;5043201;28;20061;-72
2021/05/26 04:27:33;;;;;;;2.70;1.20;;;17.60;73.40;;;;;;5029051;28;20021;-73
2021/05/26 04:30:00;;;;;;;1.58;0.90;;;17.60;74.00;;;;;;5046558;28;20515;-72
2021/05/26 04:32:26;;;;;;;3.92;1.15;;;17.60;73.10;;;;;;5044867;28;20525;-72
2021/05/26 04:34:52;;;;;;;2.50;1.02;;;17.70;73.60;;;;;;5041255;28;20053;-73
2021/05/26 04:37:18;;;;;;;3.03;1.13;;;17.40;73.90;;;;;;5045921;28;20021;-72
2021/05/26 04:39:46;;;;;;;3.00;1.50;;;17.50;73.50;;;;;;5050473;28;20021;-73
2021/05/26 04:42:12;;;;;;;2.88;1.20;;;17.40;73.10;;;;;;5052362;28;20416;-73
2021/05/26 04:44:38;;;;;;;3.75;1.00;;;17.00;74.80;;;;;;5046372;28;20021;-73
2021/05/26 04:47:04;;;;;;;4.72;1.13;;;16.50;75.40;;;;;;5034279;28;20565;-72
2021/05/26 04:49:30;;;;;;;5.15;0.98;;;15.80;78.30;;;;;;5032088;28;20164;-73
2021/05/26 04:51:58;;;;;;;5.68;1.25;;;15.10;81.40;;;;;;5048610;28;20104;-73
2021/05/26 04:54:24;;;;;;;3.90;1.27;;;14.60;84.30;;;;;;5050550;28;20487;-73
2021/05/26 04:56:50;;;;;;;2.70;1.00;;;14.20;86.70;;;;;;5035158;28;20057;-73
2021/05/26 04:59:15;;;;;;;2.75;1.20;;;13.80;88.40;;;;;;5054799;28;20032;-73
2021/05/26 05:01:41;;;;;;;2.25;1.17;;;13.60;89.40;;;;;;5055425;28;20826;-73
2021/05/26 05:04:07;;;;;;;4.43;1.10;;;13.40;90.00;;;;;;5047681;28;20037;-73
2021/05/26 05:06:32;;;;;;;5.05;1.00;;;13.30;90.60;;;;;;5050015;28;20048;-73
2021/05/26 05:08:58;;;;;;;4.10;0.95;;;13.10;90.60;;;;;;5050063;28;20037;-73
2021/05/26 05:11:24;;;;;;;3.22;1.00;;;13.10;90.50;;;;;;5061308;28;20507;-73
2021/05/26 05:13:51;;;;;;;2.35;1.25;;;13.00;90.30;;;;;;5057963;28;20020;-73
2021/05/26 05:16:17;;;;;;;5.43;1.10;;;13.00;90.70;;;;;;5052765;28;20016;-73
2021/05/26 05:18:42;;;;;;;3.00;0.85;;;13.00;91.20;;;;;;5051755;28;20037;-73
2021/05/26 05:21:08;;;;;;;4.35;1.33;;;13.00;90.90;;;;;;5051616;28;20380;-74
2021/05/26 05:23:34;;;;;;;2.85;1.00;;;13.00;91.00;;;;;;5047241;28;20487;-73
2021/05/26 05:26:01;;;;;;;1.83;0.55;;;13.10;91.00;;;;;;5047363;28;20021;-73
2021/05/26 05:28:27;;;;;;;2.28;0.95;;;13.10;90.30;;;;;;5047000;28;20039;-73
2021/05/26 05:30:52;;;;;;;1.83;0.75;;;13.10;90.60;;;;;;5046754;28;20036;-73
2021/05/26 05:33:18;;;;;;;2.00;0.80;;;13.20;91.00;;;;;;5048289;28;20036;-73
2021/05/26 05:35:44;;;;;;;1.08;0.47;;;13.20;90.10;;;;;;5045247;28;20068;-73
2021/05/26 05:38:09;;;;;;;1.77;0.63;;;13.30;90.20;;;;;;5046847;28;20049;-72
2021/05/26 05:40:35;;;;;;;2.63;0.75;;;13.40;89.80;;;;;;5048591;28;20025;-73
2021/05/26 05:43:01;;;;;;;2.58;1.25;;;13.50;90.10;;;;;;5053992;28;20025;-72
2021/05/26 05:45:26;;;;;;;3.65;0.77;;;13.60;89.50;;;;;;5051282;28;20036;-72
2021/05/26 05:47:52;;;;;;;3.60;0.68;;;13.60;90.10;;;;;;5046343;28;20078;-73
2021/05/26 05:50:18;;;;;;;2.10;0.70;;;13.60;88.40;;;;;;5044301;28;20037;-72
2021/05/26 05:52:48;;;;;;;1.60;0.93;;;13.60;88.20;;;;;;5033028;28;20379;-72
2021/05/26 05:55:15;;;;;;;1.45;0.70;;;13.60;90.70;;;;;;5046668;28;20483;-73
2021/05/26 05:57:41;;;;;;;1.90;0.60;;;13.70;88.40;;;;;;5029469;28;20100;-73
2021/05/26 06:00:09;;;;;;;1.42;0.60;;;13.70;89.40;;;;;;5033804;28;20119;-73
2021/05/26 06:02:35;;;;;;;1.90;0.50;;;13.80;89.30;;;;;;5046433;28;20037;-73
2021/05/26 06:05:01;;;;;;;2.47;0.90;;;13.90;89.40;;;;;;5047765;28;20029;-73
2021/05/26 06:07:27;;;;;;;2.08;0.70;;;14.00;87.90;;;;;;5050675;28;20029;-72
2021/05/26 06:09:53;;;;;;;1.98;0.70;;;14.00;87.60;;;;;;5047643;28;20036;-72
2021/05/26 06:12:20;;;;;;;4.25;0.77;;;14.10;86.60;;;;;;5050312;28;20039;-72
2021/05/26 06:14:46;;;;;;;0.98;0.40;;;14.20;85.70;;;;;;5048993;28;20047;-73
2021/05/26 06:17:14;;;;;;;3.10;0.70;;;14.30;84.60;;;;;;5046782;28;20029;-73
2021/05/26 06:19:40;;;;;;;2.70;0.70;;;14.30;85.10;;;;;;5049834;28;20047;-73
2021/05/26 06:22:06;;;;;;;1.45;0.60;;;14.40;85.20;;;;;;5044082;28;20025;-72
2021/05/26 06:24:32;;;;;;;2.13;0.70;;;14.30;81.90;;;;;;5049351;28;20037;-72
2021/05/26 06:26:57;;;;;;;2.70;0.73;;;14.40;84.50;;;;;;5047508;28;20561;-71
2021/05/26 06:29:23;;;;;;;1.40;0.55;;;14.40;83.30;;;;;;5047479;28;20535;-72
2021/05/26 06:31:49;;;;;;;1.83;0.50;;;14.40;81.90;;;;;;5049932;28;20043;-73
2021/05/26 06:34:15;;;;;;;3.10;1.05;;;14.50;82.60;;;;;;5047461;28;20083;-73
2021/05/26 06:36:41;;;;;;;1.35;0.60;;;14.70;84.10;;;;;;5042461;28;20033;-73
2021/05/26 06:39:07;;;;;;;2.10;0.43;;;14.90;84.10;;;;;;5050218;28;20040;-73
2021/05/26 06:41:32;;;;;;;3.03;1.00;;;15.20;82.40;;;;;;5050320;28;20114;-73
2021/05/26 06:43:58;;;;;;;3.28;1.00;;;15.40;81.70;;;;;;5045447;28;20029;-73
2021/05/26 06:46:24;;;;;;;3.38;0.40;;;15.60;79.00;;;;;;5046536;28;20102;-73
2021/05/26 06:48:50;;;;;;;1.42;0.38;;;15.50;78.20;;;;;;5047557;28;20053;-73
2021/05/26 06:51:16;;;;;;;1.42;0.73;;;15.50;75.80;;;;;;5050260;28;20033;-73
2021/05/26 06:53:41;;;;;;;2.45;0.50;;;15.30;77.40;;;;;;5063135;28;20035;-72
2021/05/26 06:56:07;;;;;;;3.20;0.50;;;15.30;77.70;;;;;;5057100;28;20083;-73
2021/05/26 06:58:33;;;;;;;1.80;0.43;;;15.20;77.60;;;;;;5046440;28;20033;-72
2021/05/26 07:00:59;;;;;;;2.70;0.50;;;15.20;78.20;;;;;;5008741;28;20500;-73
2021/05/26 07:03:24;;;;;;;1.35;0.30;;;15.30;79.20;;;;;;5042558;28;20041;-73
2021/05/26 07:05:50;;;;;;;0.98;0.30;;;15.40;78.70;;;;;;5021796;28;20020;-73
2021/05/26 07:08:16;;;;;;;1.95;0.30;;;15.30;79.90;;;;;;5045112;28;20044;-72
2021/05/26 07:10:42;;;;;;;0.80;0.30;;;15.30;76.80;;;;;;5036662;28;20508;-73
2021/05/26 07:13:07;;;;;;;2.75;0.40;;;15.40;77.20;;;;;;5027259;28;20022;-73
2021/05/26 07:15:33;;;;;;;2.25;0.50;;;15.60;76.20;;;;;;5039237;28;20096;-73
2021/05/26 07:18:07;;;;;;;2.85;0.50;;;15.70;76.60;;;;;;5041001;28;20025;-73
2021/05/26 07:20:33;;;;;;;4.55;0.40;;;15.80;76.40;;;;;;5017669;28;20076;-73
2021/05/26 07:23:00;;;;;;;1.20;0.30;;;15.80;77.30;;;;;;5040469;28;20041;-73
2021/05/26 07:25:26;;;;;;;1.70;0.50;;;16.00;77.10;;;;;;5031962;28;20480;-73
2021/05/26 07:27:52;;;;;;;1.95;0.60;;;16.10;77.40;;;;;;5032295;28;20021;-73
2021/05/26 07:30:19;;;;;;;2.65;0.52;;;16.20;76.10;;;;;;5037171;28;20127;-73
2021/05/26 07:32:45;;;;;;;0.85;0.30;;;16.30;75.70;;;;;;5034976;28;20053;-73
2021/05/26 07:35:11;;;;;;;2.83;0.55;;;16.40;75.60;;;;;;5034351;28;20120;-73
2021/05/26 07:37:39;;;;;;;2.67;0.30;;;16.30;75.50;;;;;;5040907;28;20024;-73
2021/05/26 07:40:06;;;;;;;1.50;0.47;;;16.30;75.10;;;;;;5042517;28;20041;-75
2021/05/26 07:42:32;;;;;;;1.38;0.50;;;16.30;73.80;;;;;;5029874;28;20029;-73
2021/05/26 07:44:57;;;;;;;1.33;0.47;;;16.40;74.80;;;;;;5035680;28;20032;-73
2021/05/26 07:47:23;;;;;;;2.08;0.57;;;16.30;74.40;;;;;;5031042;28;20032;-73
2021/05/26 07:49:49;;;;;;;2.28;0.50;;;16.40;75.40;;;;;;5032850;28;20082;-72
2021/05/26 07:52:19;;;;;;;5.13;0.60;;;16.70;75.40;;;;;;5034488;28;20025;-73
2021/05/26 07:54:46;;;;;;;3.33;0.52;;;16.60;73.30;;;;;;5041211;28;20116;-73
2021/05/26 07:57:12;;;;;;;3.55;0.60;;;16.50;72.90;;;;;;5019680;28;20618;-72
2021/05/26 07:59:37;;;;;;;2.92;0.50;;;16.50;75.50;;;;;;5034544;28;20100;-73
2021/05/26 08:02:03;;;;;;;3.38;0.50;;;16.70;74.10;;;;;;5034466;28;20033;-73
2021/05/26 08:04:29;;;;;;;2.90;0.63;;;16.80;73.70;;;;;;5035203;28;20028;-72
2021/05/26 08:06:54;;;;;;;0.95;0.47;;;16.90;75.20;;;;;;5035330;28;20310;-72
2021/05/26 08:09:21;;;;;;;1.27;0.50;;;16.90;73.80;;;;;;5033636;28;20092;-72
2021/05/26 08:11:46;;;;;;;2.58;0.68;;;17.00;72.90;;;;;;5035812;28;20053;-72
2021/05/26 08:14:12;;;;;;;3.00;0.60;;;17.10;71.20;;;;;;5042206;28;20034;-72
2021/05/26 08:16:38;;;;;;;2.28;0.63;;;17.10;70.80;;;;;;5038611;28;20021;-73
2021/05/26 08:19:04;;;;;;;2.67;1.13;;;17.20;70.00;;;;;;5049101;28;20026;-72
2021/05/26 08:21:30;;;;;;;1.05;0.30;;;17.20;69.10;;;;;;5035975;28;20025;-73
2021/05/26 08:23:55;;;;;;;3.67;0.70;;;17.20;68.20;;;;;;5041913;28;20033;-73
2021/05/26 08:26:22;;;;;;;2.80;0.63;;;17.10;68.90;;;;;;5041979;28;20025;-73
2021/05/26 08:28:52;;;;;;;1.52;0.50;;;17.10;69.30;;;;;;5048469;28;20495;-73
2021/05/26 08:31:21;;;;;;;;;;;17.10;70.40;;;;;;5036722;28;20513;-73
2021/05/26 08:33:47;;;;;;;1.75;0.40;;;17.10;70.20;;;;;;5036420;28;19975;-73
2021/05/26 08:36:13;;;;;;;2.35;0.52;;;17.20;71.10;;;;;;5050836;28;20057;-73
2021/05/26 08:38:39;;;;;;;1.60;0.43;;;17.30;69.50;;;;;;5039670;28;20029;-73
2021/05/26 08:41:06;;;;;;;1.15;0.40;;;17.50;69.50;;;;;;5046051;28;20392;-73
2021/05/26 08:43:36;;;;;;;3.95;0.55;;;17.70;68.20;;;;;;5044625;28;20032;-73
2021/05/26 08:46:03;;;;;;;1.10;0.40;;;17.70;67.60;;;;;;5038426;28;20037;-73
2021/05/26 08:48:30;;;;;;;1.35;0.45;;;17.70;66.40;;;;;;5036073;28;20029;-73
2021/05/26 08:50:59;;;;;;;1.85;0.40;;;17.70;65.90;;;;;;5042937;28;20072;-73
2021/05/26 08:53:25;;;;;;;3.50;0.47;;;17.90;67.90;;;;;;5040418;28;20457;-73
2021/05/26 08:55:51;;;;;;;4.97;0.55;;;18.00;68.40;;;;;;5039737;28;20052;-73
2021/05/26 08:58:17;;;;;;;3.28;0.40;;;18.00;66.50;;;;;;5031620;28;20403;-73
2021/05/26 09:00:43;;;;;;;2.15;0.50;;;17.90;64.50;;;;;;5019473;28;20080;-73
2021/05/26 09:03:09;;;;;;;5.43;0.60;;;18.00;65.00;;;;;;5038761;28;20025;-73
2021/05/26 09:05:36;;;;;;;2.30;0.80;;;17.90;66.30;;;;;;5049245;28;20124;-73
2021/05/26 09:08:18;;;;;;;3.03;0.50;;;17.80;64.70;;;;;;5039105;28;20112;-73
2021/05/26 09:11:02;;;;;;;2.08;0.60;;;17.60;65.20;;;;;;5038291;28;20123;-73
2021/05/26 09:13:36;;;;;;;1.52;0.40;;;17.40;65.40;;;;;;5037537;28;20030;-73
2021/05/26 09:16:07;;;;;;;1.52;0.50;;;17.40;66.20;;;;;;5034830;28;20036;-73
2021/05/26 09:19:02;;;;;;;1.77;0.57;;;17.60;67.90;;;;;;5042813;28;20056;-73
2021/05/26 09:21:41;;;;;;;1.98;0.65;;;17.70;66.20;;;;;;5036651;28;20029;-73
2021/05/26 09:24:27;;;;;;;15.68;2.67;;;17.80;65.30;;;;;;5045609;28;20099;-73
2021/05/26 09:27:02;;;;;;;36.95;5.28;;;17.90;65.10;;;;;;5040445;28;20388;-73
2021/05/26 09:29:33;;;;;;;2.88;0.60;;;17.90;65.60;;;;;;5038017;28;20044;-72
2021/05/26 09:32:21;;;;;;;3.08;0.88;;;17.90;66.40;;;;;;5032756;28;20061;-73
2021/05/26 09:34:49;;;;;;;6.63;0.82;;;17.80;64.50;;;;;;5038807;28;20045;-72
2021/05/26 09:37:27;;;;;;;2.42;0.82;;;17.90;65.00;;;;;;5039602;28;20025;-73
2021/05/26 09:40:07;;;;;;;2.53;0.75;;;18.00;66.00;;;;;;5041539;28;20029;-73
2021/05/26 09:42:51;;;;;;;2.42;0.50;;;18.10;67.30;;;;;;5033696;28;20107;-73
2021/05/26 09:45:20;;;;;;;2.95;0.70;;;18.30;64.40;;;;;;5034392;28;20515;-73
2021/05/26 09:47:56;;;;;;;4.20;0.70;;;18.10;63.60;;;;;;5042381;28;20033;-73
2021/05/26 09:50:33;;;;;;;16.90;2.83;;;18.30;64.60;;;;;;5040756;28;20041;-73
2021/05/26 09:53:13;;;;;;;4.75;0.70;;;18.50;64.60;;;;;;5039354;28;20052;-73
2021/05/26 09:55:43;;;;;;;3.20;0.90;;;18.70;62.60;;;;;;5037998;28;20021;-73
2021/05/26 09:58:13;;;;;;;3.75;0.90;;;18.90;63.00;;;;;;5042513;28;20022;-73
2021/05/26 10:00:43;;;;;;;4.03;0.50;;;19.00;60.70;;;;;;5011946;28;20215;-73
2021/05/26 10:03:09;;;;;;;4.72;0.57;;;19.10;61.60;;;;;;5047455;28;20119;-72
2021/05/26 10:05:35;;;;;;;3.72;0.80;;;19.00;60.90;;;;;;5042930;28;20155;-73
2021/05/26 10:08:21;;;;;;;1.98;0.57;;;19.00;61.60;;;;;;5021294;28;20036;-73
2021/05/26 10:10:51;;;;;;;4.43;0.63;;;18.90;60.30;;;;;;5042679;28;20187;-73
2021/05/26 10:13:19;;;;;;;4.53;0.60;;;18.80;59.90;;;;;;5034614;28;20037;-73
2021/05/26 10:15:44;;;;;;;1.65;0.50;;;18.90;60.40;;;;;;5034058;28;20029;-72
2021/05/26 10:18:10;;;;;;;1.67;0.73;;;18.90;60.50;;;;;;5040448;28;20151;-74
2021/05/26 10:20:44;;;;;;;4.85;0.63;;;18.90;59.80;;;;;;5038908;28;20424;-72
2021/05/26 10:23:17;;;;;;;3.50;0.50;;;18.70;60.60;;;;;;5040361;28;20807;-72
2021/05/26 10:25:44;;;;;;;4.82;0.82;;;18.80;63.70;;;;;;5037767;28;20100;-72
2021/05/26 10:28:26;;;;;;;1.42;0.55;;;19.00;60.50;;;;;;5032141;28;20037;-72
2021/05/26 10:30:52;;;;;;;2.53;0.50;;;19.00;58.20;;;;;;5037416;28;20490;-72
2021/05/26 10:33:18;;;;;;;1.83;0.43;;;19.00;59.70;;;;;;5040102;28;20033;-72
2021/05/26 10:35:54;;;;;;;2.97;0.70;;;19.20;61.80;;;;;;5039438;28;20411;-73
2021/05/26 10:38:20;;;;;;;2.10;0.60;;;19.30;60.30;;;;;;5044375;28;20373;-72
2021/05/26 10:40:56;;;;;;;23.35;2.70;;;19.20;60.70;;;;;;5037901;28;20022;-72
2021/05/26 10:43:22;;;;;;;4.35;0.82;;;19.30;60.30;;;;;;5036081;28;20040;-72
2021/05/26 10:45:53;;;;;;;2.30;0.55;;;19.20;61.40;;;;;;5016716;28;20477;-73
2021/05/26 10:48:43;;;;;;;4.85;0.60;;;19.10;63.70;;;;;;5046174;28;20029;-72
2021/05/26 10:51:11;;;;;;;3.47;0.60;;;19.10;61.40;;;;;;5020257;28;20120;-72
2021/05/26 10:53:46;;;;;;;2.13;0.65;;;19.10;62.70;;;;;;5034451;28;20044;-72
2021/05/26 10:56:44;;;;;;;2.90;0.43;;;19.10;61.20;;;;;;5043550;28;20033;-72
2021/05/26 10:59:11;;;;;;;2.40;0.45;;;19.30;64.60;;;;;;4957118;28;20043;-72
2021/05/26 11:02:09;;;;;;;4.68;0.50;;;19.10;58.80;;;;;;4965432;28;20042;-72
2021/05/26 11:04:40;;;;;;;3.38;0.50;;;19.10;60.00;;;;;;4963486;28;20094;-72
2021/05/26 11:07:22;;;;;;;2.40;0.70;;;19.30;59.70;;;;;;4960537;28;20081;-72
2021/05/26 11:10:03;;;;;;;2.35;0.47;;;19.50;58.20;;;;;;4958608;28;20062;-72
2021/05/26 11:12:54;;;;;;;5.05;0.77;;;19.60;59.90;;;;;;4961062;28;20034;-72
2021/05/26 11:15:39;;;;;;;2.90;0.85;;;19.60;58.60;;;;;;4958996;28;20042;-72
2021/05/26 11:18:13;;;;;;;2.08;0.50;;;19.50;56.10;;;;;;4961610;28;20083;-72
2021/05/26 11:20:39;;;;;;;2.17;0.50;;;19.60;56.30;;;;;;4969122;28;20030;-72
2021/05/26 11:23:12;;;;;;;4.90;0.93;;;19.70;58.10;;;;;;4967448;28;21061;-72
2021/05/26 11:25:47;;;;;;;6.20;0.98;;;19.70;56.90;;;;;;4968093;28;20061;-72
2021/05/26 11:28:12;;;;;;;3.28;0.60;;;19.60;55.60;;;;;;4964694;28;20035;-73
2021/05/26 11:30:38;;;;;;;1.45;0.40;;;19.50;57.70;;;;;;4968930;28;20722;-72
2021/05/26 11:33:09;;;;;;;3.22;0.70;;;19.70;57.60;;;;;;4968234;28;20027;-72
2021/05/26 11:35:46;;;;;;;2.25;0.45;;;19.70;56.70;;;;;;5025069;28;20128;-72
2021/05/26 11:38:22;;;;;;;4.60;0.68;;;19.80;57.50;;;;;;5036282;28;20068;-72
2021/05/26 11:40:48;;;;;;;1.33;0.55;;;19.80;54.70;;;;;;5033120;28;20480;-72
2021/05/26 11:43:14;;;;;;;1.75;0.50;;;19.90;56.10;;;;;;5014852;28;20021;-72
2021/05/26 11:45:40;;;;;;;2.13;0.68;;;19.90;55.40;;;;;;5031690;28;20049;-72
2021/05/26 11:48:07;;;;;;;1.27;0.30;;;19.80;55.10;;;;;;5046818;28;20044;-72
2021/05/26 11:50:32;;;;;;;6.15;0.60;;;19.80;57.80;;;;;;5047134;28;20033;-72
2021/05/26 11:53:01;;;;;;;4.63;0.70;;;19.80;57.50;;;;;;5051078;28;20039;-72
2021/05/26 11:55:27;;;;;;;3.55;0.50;;;19.80;56.80;;;;;;5042863;28;20472;-72
2021/05/26 11:57:55;;;;;;;7.43;1.10;;;19.80;57.20;;;;;;5047890;28;20018;-73
2021/05/26 12:00:28;;;;;;;4.10;0.40;;;19.90;56.70;;;;;;5051069;28;20017;-72
2021/05/26 12:02:58;;;;;;;3.22;0.30;;;20.00;55.90;;;;;;5049694;28;20036;-72
2021/05/26 12:05:56;;;;;;;2.22;0.55;;;19.90;52.70;;;;;;5031918;28;20021;-72
2021/05/26 12:08:24;;;;;;;2.47;0.30;;;20.00;52.50;;;;;;5033615;28;20041;-72
2021/05/26 12:10:55;;;;;;;7.03;0.52;;;20.10;53.90;;;;;;5044721;28;20183;-72
2021/05/26 12:13:26;;;;;;;3.67;0.47;;;20.20;53.80;;;;;;5028733;28;20025;-72
2021/05/26 12:15:53;;;;;;;3.17;0.63;;;20.30;52.60;;;;;;5054366;28;20029;-72
2021/05/26 12:18:19;;;;;;;1.90;0.40;;;20.40;50.60;;;;;;5050882;28;20078;-72
2021/05/26 12:20:51;;;;;;;3.47;0.60;;;20.30;50.70;;;;;;5027959;28;20026;-72
2021/05/26 12:23:39;;;;;;;5.20;0.80;;;20.40;51.50;;;;;;5047277;28;20036;-72
2021/05/26 12:26:20;;;;;;;3.47;0.75;;;20.30;51.40;;;;;;5047216;28;20484;-73
2021/05/26 12:28:46;;;;;;;6.43;0.68;;;20.30;52.70;;;;;;5044862;28;20111;-72
2021/05/26 12:31:16;;;;;;;3.08;0.30;;;20.20;50.50;;;;;;5045246;28;20029;-72
2021/05/26 12:33:52;;;;;;;5.07;0.75;;;20.20;51.40;;;;;;5047678;28;20103;-72
2021/05/26 12:36:20;;;;;;;3.38;0.63;;;20.20;51.40;;;;;;5046547;28;20118;-72
2021/05/26 12:38:46;;;;;;;1.98;0.47;;;20.20;51.30;;;;;;5039730;28;20025;-72
2021/05/26 12:41:26;;;;;;;7.72;0.80;;;20.40;54.10;;;;;;5040675;28;20036;-72
2021/05/26 12:43:52;;;;;;;;;;;20.70;52.10;;;;;;5045534;28;20037;-72
2021/05/26 12:46:43;;;;;;;3.72;0.40;;;20.60;52.00;;;;;;5041375;28;19909;-72
2021/05/26 12:52:09;;;;;;;2.00;0.55;;;20.30;50.60;;;;;;5044866;28;20030;-73
2021/05/26 12:54:45;;;;;;;3.15;0.30;;;20.20;50.80;;;;;;5048324;28;20488;-73
2021/05/26 12:57:16;;;;;;;3.55;0.40;;;20.20;53.50;;;;;;5049375;28;20029;-73
2021/05/26 12:59:43;;;;;;;4.93;0.70;;;20.50;52.60;;;;;;5045987;28;20395;-73